Time;durP1;ratioP1;P1;durP2;ratioP2;P2;SDS_P1;SDS_P2;PMS_P1;PMS_P2;Temp;Humidity;BMP_temperature;BMP_pressure;BME280_temperature;BME280_humidity;BME280_pressure;Samples;Min_cycle;Max_cycle;Signal;HPM_P1;HPM_P2
2023/07/04 00:01:32;;;;;;;9.45;6.57;;;28.00;99.90;;;;;;4883574;23;20053;-46
2023/07/04 00:03:58;;;;;;;8.98;6.00;;;28.00;99.90;;;;;;4880209;29;20037;-45
2023/07/04 00:06:29;;;;;;;10.82;5.57;;;28.00;99.90;;;;;;4853383;29;20057;-46
2023/07/04 00:08:55;;;;;;;7.18;5.85;;;28.00;99.90;;;;;;4862902;29;20454;-45
2023/07/04 00:11:21;;;;;;;12.27;5.70;;;28.00;99.90;;;;;;4876304;29;20439;-46
2023/07/04 00:13:49;;;;;;;9.05;5.70;;;28.00;99.90;;;;;;4880585;29;20076;-45
2023/07/04 00:16:15;;;;;;;10.05;5.72;;;27.90;99.90;;;;;;4879824;29;20153;-45
2023/07/04 00:18:41;;;;;;;13.05;5.90;;;27.90;99.90;;;;;;4863182;29;20120;-45
2023/07/04 00:21:14;;;;;;;11.32;5.22;;;27.90;99.90;;;;;;4875771;29;20153;-45
2023/07/04 00:23:45;;;;;;;7.43;5.10;;;27.90;99.90;;;;;;4880193;29;20033;-45
2023/07/04 00:26:11;;;;;;;10.00;5.85;;;27.90;99.90;;;;;;4877970;29;20065;-45
2023/07/04 00:28:42;;;;;;;11.27;5.38;;;27.90;99.90;;;;;;4879942;29;20108;-45
2023/07/04 00:31:10;;;;;;;7.28;5.22;;;27.90;99.90;;;;;;4875693;29;20085;-46
2023/07/04 00:33:36;;;;;;;10.68;5.03;;;27.90;99.90;;;;;;4879806;29;20031;-45
2023/07/04 00:36:05;;;;;;;9.07;5.25;;;27.90;99.90;;;;;;4863209;29;20090;-45
2023/07/04 00:38:32;;;;;;;8.65;5.80;;;27.90;99.90;;;;;;4879773;29;20029;-45
2023/07/04 00:41:10;;;;;;;10.30;5.47;;;27.90;99.90;;;;;;4879577;29;20033;-45
2023/07/04 00:44:01;;;;;;;10.82;6.38;;;27.90;99.90;;;;;;4879732;29;20029;-45
2023/07/04 00:46:38;;;;;;;16.05;5.80;;;27.80;99.90;;;;;;4879189;29;20036;-45
2023/07/04 00:49:43;;;;;;;17.65;6.35;;;27.80;99.90;;;;;;4875894;29;20034;-44
2023/07/04 00:52:25;;;;;;;10.15;5.95;;;27.80;99.90;;;;;;4867419;29;20025;-45
2023/07/04 00:54:57;;;;;;;13.07;5.25;;;27.70;99.90;;;;;;4876427;29;20021;-45
2023/07/04 00:57:25;;;;;;;8.30;5.45;;;27.70;99.90;;;;;;4853204;29;20033;-45
2023/07/04 00:59:58;;;;;;;10.63;5.30;;;27.70;99.90;;;;;;4862558;29;20025;-45
2023/07/04 01:02:34;;;;;;;7.80;5.30;;;27.70;99.90;;;;;;4891282;23;20048;-51
2023/07/04 01:05:03;;;;;;;8.85;5.57;;;27.70;99.90;;;;;;4879073;29;20496;-51
2023/07/04 01:07:36;;;;;;;7.55;5.40;;;27.70;99.90;;;;;;4862968;29;20095;-51
2023/07/04 01:10:13;;;;;;;12.07;5.07;;;27.70;99.90;;;;;;4879178;29;20035;-51
2023/07/04 01:12:39;;;;;;;7.85;5.07;;;27.70;99.90;;;;;;4879109;29;20025;-51
2023/07/04 01:15:07;;;;;;;9.35;4.97;;;27.70;99.90;;;;;;4878630;29;20044;-51
2023/07/04 01:17:33;;;;;;;9.98;5.20;;;27.70;99.90;;;;;;4872466;29;20029;-51
2023/07/04 01:20:00;;;;;;;9.23;4.75;;;27.60;99.90;;;;;;4878667;29;20499;-51
2023/07/04 01:22:56;;;;;;;6.10;5.10;;;27.70;99.90;;;;;;4879074;29;20033;-51
2023/07/04 01:25:41;;;;;;;8.57;4.93;;;27.70;99.90;;;;;;4840467;29;20338;-51
2023/07/04 01:28:08;;;;;;;9.15;4.78;;;27.70;99.90;;;;;;4878837;29;20875;-51
2023/07/04 01:30:38;;;;;;;;;;;27.70;99.90;;;;;;4879243;29;20049;-51
2023/07/04 01:33:05;;;;;;;10.07;4.55;;;27.70;99.90;;;;;;4878507;29;19922;-51
2023/07/04 01:35:33;;;;;;;10.80;5.05;;;27.70;99.90;;;;;;4879043;29;20025;-51
2023/07/04 01:37:59;;;;;;;9.50;5.05;;;27.60;99.90;;;;;;4878598;29;20387;-52
2023/07/04 01:40:26;;;;;;;9.48;5.30;;;27.60;99.90;;;;;;4878748;29;20029;-52
2023/07/04 01:42:53;;;;;;;7.07;4.53;;;27.60;99.90;;;;;;4878701;29;20427;-51
2023/07/04 01:45:19;;;;;;;9.90;5.20;;;27.60;99.90;;;;;;4878260;29;20283;-51
2023/07/04 01:47:45;;;;;;;10.23;5.43;;;27.60;99.90;;;;;;4878635;29;20040;-52
2023/07/04 01:50:13;;;;;;;7.93;4.38;;;27.60;99.90;;;;;;4878243;29;20041;-52
2023/07/04 01:52:40;;;;;;;6.43;5.43;;;27.60;99.90;;;;;;4861828;29;20310;-52
2023/07/04 01:55:06;;;;;;;;;;;27.60;99.90;;;;;;4878787;29;20566;-51
2023/07/04 01:57:32;;;;;;;7.93;4.90;;;27.60;99.90;;;;;;4878295;29;19955;-52
2023/07/04 01:59:58;;;;;;;8.13;4.25;;;27.60;99.90;;;;;;4878026;29;20419;-51
2023/07/04 02:02:24;;;;;;;7.68;4.35;;;27.60;99.90;;;;;;4873631;23;20515;-43
2023/07/04 02:04:50;;;;;;;16.23;5.05;;;27.60;99.90;;;;;;4859280;29;20033;-45
2023/07/04 02:07:16;;;;;;;6.72;4.03;;;27.50;99.90;;;;;;4843337;29;20493;-44
2023/07/04 02:09:43;;;;;;;8.57;4.55;;;27.50;99.90;;;;;;4859624;29;20045;-44
2023/07/04 02:12:09;;;;;;;10.07;4.90;;;27.50;99.90;;;;;;4859762;29;20101;-43
2023/07/04 02:14:35;;;;;;;6.30;4.63;;;27.50;99.90;;;;;;4859548;29;20030;-43
2023/07/04 02:17:01;;;;;;;8.88;4.28;;;27.50;99.90;;;;;;4859825;29;20021;-43
2023/07/04 02:19:27;;;;;;;7.97;4.05;;;27.50;99.90;;;;;;4859573;29;20036;-43
2023/07/04 02:21:53;;;;;;;6.45;4.43;;;27.50;99.90;;;;;;4859906;29;20026;-44
2023/07/04 02:24:19;;;;;;;10.00;5.47;;;27.50;99.90;;;;;;4859797;29;20033;-43
2023/07/04 02:26:44;;;;;;;7.13;4.75;;;27.50;99.90;;;;;;4859499;29;20521;-45
2023/07/04 02:29:10;;;;;;;7.50;4.75;;;27.50;99.90;;;;;;4859651;29;20034;-44
2023/07/04 02:31:36;;;;;;;9.00;5.32;;;27.50;99.90;;;;;;4859732;29;20036;-44
2023/07/04 02:34:02;;;;;;;9.23;4.70;;;27.50;99.90;;;;;;4859552;29;20116;-45
2023/07/04 02:36:28;;;;;;;9.38;4.30;;;27.50;99.90;;;;;;4859430;29;20029;-44
2023/07/04 02:38:53;;;;;;;6.40;4.00;;;27.50;99.90;;;;;;4859855;29;20018;-43
2023/07/04 02:41:19;;;;;;;6.85;4.25;;;27.40;99.90;;;;;;4859370;29;20382;-44
2023/07/04 02:43:45;;;;;;;6.70;3.83;;;27.50;99.90;;;;;;4859694;29;20022;-44
2023/07/04 02:46:10;;;;;;;8.00;3.42;;;27.40;99.90;;;;;;4843043;29;20517;-44
2023/07/04 02:48:36;;;;;;;6.25;3.08;;;27.40;99.90;;;;;;4859282;29;20030;-45
2023/07/04 02:51:02;;;;;;;4.85;3.25;;;27.40;99.90;;;;;;4859486;29;20022;-44
2023/07/04 02:53:28;;;;;;;7.10;3.50;;;27.40;99.90;;;;;;4859424;29;20091;-45
2023/07/04 02:55:55;;;;;;;4.88;2.95;;;27.40;99.90;;;;;;4859660;29;20037;-45
2023/07/04 02:58:22;;;;;;;7.15;3.53;;;27.30;99.90;;;;;;4843219;29;20025;-44
2023/07/04 03:00:49;;;;;;;5.13;3.25;;;27.30;99.90;;;;;;4859830;29;20053;-45
2023/07/04 03:03:16;;;;;;;6.47;3.38;;;27.30;99.90;;;;;;4859313;29;20049;-45
2023/07/04 03:05:42;;;;;;;7.40;3.33;;;27.30;99.90;;;;;;4843654;29;20045;-44
2023/07/04 03:08:08;;;;;;;5.28;2.75;;;27.30;99.90;;;;;;4859125;29;20045;-45
2023/07/04 03:10:34;;;;;;;8.35;2.95;;;27.30;99.90;;;;;;4859325;29;20426;-44
2023/07/04 03:13:00;;;;;;;3.22;2.50;;;27.30;99.90;;;;;;4859223;29;20025;-45
2023/07/04 03:15:26;;;;;;;5.97;3.28;;;27.30;99.90;;;;;;4859424;29;20096;-44
2023/07/04 03:17:52;;;;;;;4.55;3.25;;;27.30;99.90;;;;;;4844845;29;20077;-45
2023/07/04 03:20:17;;;;;;;6.97;3.38;;;27.30;99.90;;;;;;4845941;29;20025;-44
2023/07/04 03:22:44;;;;;;;7.93;3.53;;;27.30;99.90;;;;;;4862519;29;20040;-44
2023/07/04 03:25:11;;;;;;;7.03;3.65;;;27.30;99.90;;;;;;4862639;29;20126;-44
2023/07/04 03:27:39;;;;;;;8.98;3.83;;;27.30;99.90;;;;;;4862207;29;20033;-44
2023/07/04 03:30:07;;;;;;;6.25;4.43;;;27.30;99.90;;;;;;4862513;29;20048;-44
2023/07/04 03:32:33;;;;;;;6.88;4.20;;;27.30;99.90;;;;;;4868979;29;20123;-44
2023/07/04 03:35:02;;;;;;;6.43;4.03;;;27.30;99.90;;;;;;4862127;29;20025;-44
2023/07/04 03:37:32;;;;;;;5.88;3.88;;;27.30;99.90;;;;;;4862537;29;20035;-44
2023/07/04 03:39:59;;;;;;;9.18;4.32;;;27.30;99.90;;;;;;4845859;29;20077;-44
2023/07/04 03:42:25;;;;;;;10.07;4.72;;;27.30;99.90;;;;;;4867468;29;20034;-44
2023/07/04 03:44:51;;;;;;;11.02;5.55;;;27.30;99.90;;;;;;4845656;29;20049;-44
2023/07/04 03:47:17;;;;;;;14.90;4.13;;;27.30;99.90;;;;;;4862239;29;20021;-44
2023/07/04 03:49:43;;;;;;;11.65;4.35;;;27.30;99.90;;;;;;4862008;29;20086;-44
2023/07/04 03:52:09;;;;;;;9.38;4.88;;;27.30;99.90;;;;;;4850464;29;20049;-44
2023/07/04 03:54:35;;;;;;;7.50;4.45;;;27.30;99.90;;;;;;4862014;29;20025;-44
2023/07/04 03:57:01;;;;;;;7.60;4.88;;;27.30;99.90;;;;;;4845548;29;20032;-44
2023/07/04 03:59:27;;;;;;;8.55;5.05;;;27.20;99.90;;;;;;4862197;29;20030;-45
2023/07/04 04:01:53;;;;;;;9.52;4.22;;;27.20;99.90;;;;;;4865310;29;20417;-44
2023/07/04 04:04:20;;;;;;;10.63;6.00;;;27.20;99.90;;;;;;4861752;29;20021;-44
2023/07/04 04:06:48;;;;;;;11.75;5.65;;;27.20;99.90;;;;;;4845192;29;20052;-44
2023/07/04 04:09:15;;;;;;;10.60;6.20;;;27.20;99.90;;;;;;4845072;29;20045;-45
2023/07/04 04:11:41;;;;;;;13.50;6.03;;;27.20;99.90;;;;;;4851001;29;20053;-45
2023/07/04 04:14:09;;;;;;;11.82;6.05;;;27.20;99.90;;;;;;4861820;29;20033;-44
2023/07/04 04:16:34;;;;;;;;;;;27.20;99.90;;;;;;4862045;29;20033;-44
2023/07/04 04:19:01;;;;;;;10.00;6.68;;;27.10;99.90;;;;;;4861700;29;19912;-44
2023/07/04 04:21:27;;;;;;;12.57;6.78;;;27.10;99.90;;;;;;4867259;29;20034;-44
2023/07/04 04:23:53;;;;;;;13.90;6.50;;;27.10;99.90;;;;;;4861649;29;20056;-44
2023/07/04 04:26:20;;;;;;;9.63;6.47;;;27.10;99.90;;;;;;4861246;29;20029;-45
2023/07/04 04:28:46;;;;;;;10.02;6.65;;;27.10;99.90;;;;;;4861127;29;20032;-45
2023/07/04 04:31:12;;;;;;;12.00;6.63;;;27.10;99.90;;;;;;4866368;29;20037;-48
2023/07/04 04:33:38;;;;;;;16.98;7.63;;;27.00;99.90;;;;;;4844666;29;20033;-45
2023/07/04 04:36:04;;;;;;;13.00;7.18;;;27.00;99.90;;;;;;4861465;29;20100;-45
2023/07/04 04:38:30;;;;;;;12.15;6.65;;;27.00;99.90;;;;;;4861480;29;20021;-44
2023/07/04 04:41:06;;;;;;;15.43;7.68;;;27.00;99.90;;;;;;4867280;29;20037;-44
2023/07/04 04:43:33;;;;;;;15.27;8.30;;;27.00;99.90;;;;;;4848980;29;20022;-45
2023/07/04 04:46:00;;;;;;;17.98;8.63;;;27.00;99.90;;;;;;4861307;29;20104;-44
2023/07/04 04:48:29;;;;;;;17.77;10.25;;;27.00;99.90;;;;;;4861002;29;20025;-44
2023/07/04 04:50:58;;;;;;;16.55;10.50;;;27.00;99.90;;;;;;4861289;29;20045;-44
2023/07/04 04:53:25;;;;;;;15.35;10.95;;;27.00;99.90;;;;;;4861007;29;20024;-44
2023/07/04 04:55:51;;;;;;;13.75;10.85;;;27.00;99.90;;;;;;4844144;29;20068;-44
2023/07/04 04:58:18;;;;;;;14.03;11.20;;;27.00;99.90;;;;;;4860864;29;20030;-44
2023/07/04 05:00:44;;;;;;;17.70;11.75;;;27.00;99.90;;;;;;4863020;29;20124;-44
2023/07/04 05:03:13;;;;;;;18.17;13.35;;;27.00;99.90;;;;;;4873709;29;20036;-45
2023/07/04 05:05:39;;;;;;;19.70;14.27;;;27.00;99.90;;;;;;4860776;29;20032;-44
2023/07/04 05:08:05;;;;;;;19.02;12.68;;;27.00;99.90;;;;;;4860628;29;20116;-44
2023/07/04 05:10:31;;;;;;;10.52;7.38;;;27.00;99.90;;;;;;4864208;29;20128;-46
2023/07/04 05:12:57;;;;;;;14.48;9.52;;;27.00;99.90;;;;;;4866990;29;20041;-44
2023/07/04 05:15:24;;;;;;;21.00;13.38;;;27.00;99.90;;;;;;4861519;29;20550;-45
2023/07/04 05:17:50;;;;;;;10.70;7.68;;;27.00;99.90;;;;;;4860551;29;20328;-45
2023/07/04 05:20:22;;;;;;;13.35;9.07;;;27.00;99.90;;;;;;4861845;29;20022;-44
2023/07/04 05:22:48;;;;;;;10.02;7.65;;;27.10;99.90;;;;;;4864626;29;20050;-45
2023/07/04 05:25:15;;;;;;;9.80;7.28;;;27.10;99.90;;;;;;4860368;29;20117;-45
2023/07/04 05:27:41;;;;;;;14.80;11.30;;;27.20;99.90;;;;;;4860163;29;20026;-45
2023/07/04 05:30:09;;;;;;;11.48;9.40;;;27.20;99.90;;;;;;4843964;29;20521;-45
2023/07/04 05:32:35;;;;;;;10.35;8.35;;;27.20;99.90;;;;;;4868685;29;20040;-44
2023/07/04 05:35:00;;;;;;;9.80;7.75;;;27.20;99.90;;;;;;4844025;29;20033;-45
2023/07/04 05:37:26;;;;;;;12.07;8.90;;;27.30;99.90;;;;;;4860427;29;20024;-44
2023/07/04 05:39:52;;;;;;;16.25;10.23;;;27.30;99.90;;;;;;4859571;29;20363;-45
2023/07/04 05:42:18;;;;;;;9.73;8.48;;;27.40;99.90;;;;;;4860334;29;20029;-45
2023/07/04 05:44:44;;;;;;;12.68;8.95;;;27.40;99.90;;;;;;4860104;29;20479;-45
2023/07/04 05:47:09;;;;;;;16.20;10.95;;;27.40;99.90;;;;;;4860385;29;20028;-45
2023/07/04 05:49:35;;;;;;;10.35;8.27;;;27.50;99.90;;;;;;4869696;29;20072;-45
2023/07/04 05:52:01;;;;;;;12.77;8.88;;;27.40;99.90;;;;;;4867214;29;20099;-45
2023/07/04 05:54:27;;;;;;;12.75;8.98;;;27.50;99.90;;;;;;4843374;29;20390;-45
2023/07/04 05:56:55;;;;;;;11.80;9.20;;;27.50;99.90;;;;;;4859806;29;20022;-47
2023/07/04 05:59:22;;;;;;;14.30;10.07;;;27.50;99.90;;;;;;4859910;29;20022;-45
2023/07/04 06:01:50;;;;;;;14.15;11.50;;;27.50;99.90;;;;;;4860794;29;20054;-45
2023/07/04 06:04:16;;;;;;;13.10;10.98;;;27.60;99.90;;;;;;4859959;29;20026;-45
2023/07/04 06:06:44;;;;;;;16.60;14.10;;;27.50;99.90;;;;;;4843153;29;20025;-45
2023/07/04 06:09:13;;;;;;;17.73;11.57;;;27.60;99.90;;;;;;4861358;29;20572;-44
2023/07/04 06:11:45;;;;;;;13.95;10.85;;;27.60;99.90;;;;;;4859598;29;20054;-45
2023/07/04 06:14:18;;;;;;;21.48;14.52;;;27.60;99.90;;;;;;4859420;29;20112;-44
2023/07/04 06:16:44;;;;;;;18.65;14.35;;;27.60;99.90;;;;;;4859868;29;20026;-45
2023/07/04 06:19:10;;;;;;;20.85;16.83;;;27.60;99.90;;;;;;4864896;29;20123;-45
2023/07/04 06:21:36;;;;;;;16.85;13.23;;;27.60;99.90;;;;;;4860052;29;20105;-44
2023/07/04 06:24:01;;;;;;;21.23;15.63;;;27.60;99.90;;;;;;4859850;29;20030;-44
2023/07/04 06:26:27;;;;;;;14.57;11.25;;;27.70;99.90;;;;;;4870932;29;20033;-45
2023/07/04 06:28:54;;;;;;;14.65;9.30;;;27.70;99.90;;;;;;4860026;29;20033;-45
2023/07/04 06:31:20;;;;;;;16.70;11.27;;;27.70;99.90;;;;;;4859807;29;20033;-45
2023/07/04 06:33:46;;;;;;;15.52;10.63;;;27.70;99.90;;;;;;4859441;29;20257;-45
2023/07/04 06:36:14;;;;;;;11.55;9.13;;;27.70;99.90;;;;;;4859726;29;20390;-45
2023/07/04 06:38:41;;;;;;;16.15;10.35;;;27.70;99.90;;;;;;4842993;29;20061;-45
2023/07/04 06:41:13;;;;;;;16.13;10.90;;;27.70;99.90;;;;;;4852652;29;20037;-45
2023/07/04 06:43:43;;;;;;;12.77;9.38;;;27.70;99.90;;;;;;4860438;29;20053;-44
2023/07/04 06:46:14;;;;;;;14.10;11.48;;;27.70;99.90;;;;;;4859397;29;20076;-45
2023/07/04 06:48:40;;;;;;;16.55;11.77;;;27.80;99.90;;;;;;4846502;29;20027;-45
2023/07/04 06:51:13;;;;;;;14.40;10.18;;;27.70;99.90;;;;;;4868870;29;20041;-45
2023/07/04 06:53:40;;;;;;;10.85;8.00;;;27.70;99.90;;;;;;4863488;29;20033;-45
2023/07/04 06:56:10;;;;;;;13.02;7.95;;;27.80;99.90;;;;;;4863069;29;20025;-45
2023/07/04 06:58:40;;;;;;;10.35;8.77;;;27.70;99.90;;;;;;4864226;29;20040;-47
2023/07/04 07:01:06;;;;;;;11.32;7.15;;;27.80;99.90;;;;;;4862843;29;20093;-45
2023/07/04 07:03:33;;;;;;;12.50;8.23;;;27.70;99.90;;;;;;4846392;29;20085;-45
2023/07/04 07:06:08;;;;;;;11.98;7.60;;;27.70;99.90;;;;;;4862759;29;20634;-45
2023/07/04 07:08:35;;;;;;;10.57;7.50;;;27.70;99.90;;;;;;4863923;29;20509;-45
2023/07/04 07:11:06;;;;;;;12.88;7.50;;;27.70;99.90;;;;;;4856293;29;20033;-45
2023/07/04 07:13:32;;;;;;;9.35;6.40;;;27.70;99.90;;;;;;4864308;29;20041;-46
2023/07/04 07:16:11;;;;;;;15.52;6.30;;;27.70;99.90;;;;;;4862773;29;20506;-45
2023/07/04 07:18:38;;;;;;;10.05;6.55;;;27.70;99.90;;;;;;4863768;29;20052;-45
2023/07/04 07:21:06;;;;;;;8.38;5.35;;;27.70;99.90;;;;;;4862693;29;20030;-45
2023/07/04 07:23:34;;;;;;;12.77;6.13;;;27.70;99.90;;;;;;4845946;29;20033;-45
2023/07/04 07:26:01;;;;;;;7.07;5.15;;;27.70;99.90;;;;;;4872782;29;20033;-45
2023/07/04 07:28:28;;;;;;;12.98;6.45;;;27.70;99.90;;;;;;4862330;29;20040;-45
2023/07/04 07:31:06;;;;;;;11.60;6.15;;;27.70;99.90;;;;;;4868066;29;20050;-45
2023/07/04 07:33:34;;;;;;;13.77;9.65;;;27.70;99.90;;;;;;4866507;29;20056;-44
2023/07/04 07:36:07;;;;;;;12.65;8.48;;;27.80;99.90;;;;;;4862468;29;20105;-43
2023/07/04 07:38:33;;;;;;;17.58;7.82;;;27.70;99.90;;;;;;4851173;29;20038;-43
2023/07/04 07:40:59;;;;;;;12.98;7.13;;;27.80;99.90;;;;;;4862147;29;20037;-43
2023/07/04 07:43:24;;;;;;;12.05;6.35;;;27.80;99.90;;;;;;4862016;29;20053;-44
2023/07/04 07:45:50;;;;;;;13.27;7.68;;;27.80;99.90;;;;;;4863589;29;20037;-45
2023/07/04 07:48:17;;;;;;;11.15;6.47;;;27.90;99.90;;;;;;4863091;29;20029;-44
2023/07/04 07:50:43;;;;;;;8.57;6.05;;;27.90;99.90;;;;;;4862001;29;20122;-45
2023/07/04 07:53:12;;;;;;;17.98;6.18;;;27.80;99.90;;;;;;4861986;29;20022;-44
2023/07/04 07:55:39;;;;;;;9.15;6.43;;;27.80;99.90;;;;;;4862013;29;20033;-45
2023/07/04 07:58:05;;;;;;;11.48;6.82;;;27.90;99.90;;;;;;4863114;29;20057;-45
2023/07/04 08:00:31;;;;;;;9.63;5.85;;;27.90;99.90;;;;;;4861949;29;20103;-45
2023/07/04 08:02:57;;;;;;;11.43;6.30;;;27.90;99.90;;;;;;4865543;29;20040;-45
2023/07/04 08:05:22;;;;;;;9.52;6.55;;;27.90;99.90;;;;;;4862759;29;20033;-44
2023/07/04 08:07:48;;;;;;;13.48;8.80;;;27.90;99.90;;;;;;4845139;29;20441;-44
2023/07/04 08:10:14;;;;;;;10.30;6.35;;;28.00;99.90;;;;;;4861712;29;20109;-44
2023/07/04 08:12:39;;;;;;;9.40;6.63;;;28.00;99.90;;;;;;4869884;29;20068;-44
2023/07/04 08:15:06;;;;;;;18.55;7.00;;;28.00;99.90;;;;;;4856229;29;20025;-45
2023/07/04 08:17:32;;;;;;;9.57;5.82;;;28.00;99.90;;;;;;4861444;29;20057;-44
2023/07/04 08:19:57;;;;;;;11.18;6.90;;;28.00;99.90;;;;;;4865250;29;20099;-44
2023/07/04 08:22:23;;;;;;;9.07;5.95;;;28.00;99.90;;;;;;4861615;29;20030;-43
2023/07/04 08:24:49;;;;;;;7.53;5.20;;;28.10;99.90;;;;;;4861215;29;20082;-48
2023/07/04 08:27:15;;;;;;;12.30;6.18;;;28.20;99.90;;;;;;4860853;29;20665;-45
2023/07/04 08:29:40;;;;;;;11.43;8.27;;;28.20;99.90;;;;;;4847222;29;20041;-44
2023/07/04 08:32:06;;;;;;;11.18;6.60;;;28.10;99.90;;;;;;4869865;29;20546;-45
2023/07/04 08:34:32;;;;;;;11.02;7.72;;;28.20;99.90;;;;;;4862099;29;20025;-45
2023/07/04 08:36:58;;;;;;;9.52;6.00;;;28.20;99.90;;;;;;4861271;29;20029;-44
2023/07/04 08:39:24;;;;;;;12.57;8.80;;;28.20;99.90;;;;;;4862886;29;20529;-45
2023/07/04 08:41:59;;;;;;;13.23;8.35;;;28.20;99.90;;;;;;4863433;29;20108;-44
2023/07/04 08:44:42;;;;;;;10.23;6.60;;;28.20;99.90;;;;;;4858376;29;20022;-46
2023/07/04 08:47:11;;;;;;;14.00;8.00;;;28.20;99.90;;;;;;4849873;29;20493;-46
2023/07/04 08:50:05;;;;;;;13.15;8.73;;;28.20;99.90;;;;;;4863726;29;20529;-46
2023/07/04 08:52:39;;;;;;;11.43;8.02;;;28.20;99.90;;;;;;4835683;29;20041;-46
2023/07/04 08:55:11;;;;;;;12.98;7.80;;;28.30;99.90;;;;;;4875112;29;20033;-46
2023/07/04 08:57:55;;;;;;;9.13;6.25;;;28.30;99.90;;;;;;4868427;29;20073;-45
2023/07/04 09:00:32;;;;;;;7.47;5.70;;;28.30;99.90;;;;;;4867976;29;20030;-45
2023/07/04 09:03:16;;;;;;;16.58;8.55;;;28.30;99.90;;;;;;4863932;29;20129;-49
2023/07/04 09:05:56;;;;;;;10.35;8.10;;;28.30;99.90;;;;;;4866589;29;20037;-49
2023/07/04 09:08:41;;;;;;;8.77;5.63;;;28.30;99.90;;;;;;4844100;29;20056;-49
2023/07/04 09:11:09;;;;;;;8.98;5.78;;;28.30;99.90;;;;;;4860226;29;20112;-48
2023/07/04 09:13:38;;;;;;;8.98;5.40;;;28.30;99.90;;;;;;4843665;29;20105;-48
2023/07/04 09:16:30;;;;;;;15.23;8.40;;;28.30;99.90;;;;;;4859933;29;20378;-48
2023/07/04 09:19:03;;;;;;;12.75;6.57;;;28.40;99.90;;;;;;4860251;29;20025;-48
2023/07/04 09:21:30;;;;;;;11.68;7.88;;;28.40;99.90;;;;;;4866589;29;20047;-47
2023/07/04 09:24:03;;;;;;;11.02;7.88;;;28.50;99.90;;;;;;4860354;29;20038;-48
2023/07/04 09:26:38;;;;;;;18.17;11.50;;;28.50;99.90;;;;;;4860479;29;20542;-48
2023/07/04 09:29:08;;;;;;;12.32;9.00;;;28.50;99.90;;;;;;4860419;29;20045;-48
2023/07/04 09:31:37;;;;;;;8.93;6.45;;;28.50;99.90;;;;;;4860202;29;20048;-48
2023/07/04 09:34:17;;;;;;;11.85;7.97;;;28.50;99.90;;;;;;4850357;29;20025;-49
2023/07/04 09:36:44;;;;;;;11.45;7.40;;;28.50;99.90;;;;;;4844174;29;20109;-48
2023/07/04 09:39:09;;;;;;;13.43;8.88;;;28.60;99.90;;;;;;4860559;29;20036;-48
2023/07/04 09:41:39;;;;;;;14.65;10.80;;;28.60;99.90;;;;;;4860051;29;20431;-48
2023/07/04 09:44:17;;;;;;;11.18;8.50;;;28.60;99.90;;;;;;4860114;29;20029;-48
2023/07/04 09:46:51;;;;;;;18.15;7.95;;;28.60;99.90;;;;;;4845041;29;20017;-47
2023/07/04 09:49:27;;;;;;;12.00;7.20;;;28.60;99.90;;;;;;4860016;29;20038;-48
2023/07/04 09:51:59;;;;;;;17.55;8.57;;;28.70;99.90;;;;;;4848604;29;20505;-48
2023/07/04 09:54:25;;;;;;;14.65;7.68;;;28.60;99.90;;;;;;4859784;29;20078;-48
2023/07/04 09:56:51;;;;;;;13.82;7.80;;;28.60;99.90;;;;;;4859822;29;20033;-48
2023/07/04 09:59:21;;;;;;;11.85;7.97;;;28.60;99.90;;;;;;4843254;29;20355;-48
2023/07/04 10:01:50;;;;;;;9.43;6.75;;;28.60;99.90;;;;;;4859611;29;20057;-48
2023/07/04 10:04:30;;;;;;;13.38;7.28;;;28.60;99.90;;;;;;4859824;29;20021;-47
2023/07/04 10:06:58;;;;;;;14.55;9.02;;;28.60;99.90;;;;;;4847405;29;20098;-48
2023/07/04 10:09:26;;;;;;;16.67;9.93;;;28.70;99.90;;;;;;4859629;29;20067;-48
2023/07/04 10:12:06;;;;;;;;;;;28.70;99.90;;;;;;4860237;29;20484;-48
2023/07/04 10:14:36;;;;;;;14.77;9.88;;;28.70;99.90;;;;;;4859909;29;20308;-47
2023/07/04 10:17:17;;;;;;;13.50;9.90;;;28.80;99.90;;;;;;4859891;29;20033;-47
2023/07/04 10:19:48;;;;;;;23.63;17.00;;;28.70;99.90;;;;;;4859642;29;20033;-48
2023/07/04 10:22:29;;;;;;;12.80;7.57;;;28.80;99.90;;;;;;4859963;29;20129;-48
2023/07/04 10:24:55;;;;;;;17.15;10.40;;;28.80;99.90;;;;;;4859633;29;20025;-48
2023/07/04 10:27:32;;;;;;;13.02;9.07;;;28.80;99.90;;;;;;4862874;29;20040;-48
2023/07/04 10:30:00;;;;;;;25.38;13.75;;;28.80;99.90;;;;;;4863283;29;20547;-47
2023/07/04 10:32:26;;;;;;;20.15;12.15;;;28.80;99.90;;;;;;4863617;29;20386;-48
2023/07/04 10:34:52;;;;;;;16.20;10.25;;;28.80;99.90;;;;;;4863298;29;20074;-48
2023/07/04 10:37:31;;;;;;;17.63;11.48;;;28.70;99.90;;;;;;4863508;29;20048;-48
2023/07/04 10:40:04;;;;;;;20.67;12.45;;;28.80;99.90;;;;;;4863182;29;20387;-48
2023/07/04 10:43:04;;;;;;;23.17;12.35;;;28.80;99.90;;;;;;4863120;29;20082;-48
2023/07/04 10:45:31;;;;;;;19.80;13.35;;;28.80;99.90;;;;;;4837659;29;20032;-48
2023/07/04 10:48:05;;;;;;;17.33;11.80;;;28.80;99.90;;;;;;4846459;29;20474;-48
2023/07/04 10:50:46;;;;;;;23.20;12.63;;;28.80;99.90;;;;;;4846646;29;20494;-48
2023/07/04 10:53:12;;;;;;;24.65;12.27;;;28.80;99.90;;;;;;4862887;29;20450;-49
2023/07/04 10:56:08;;;;;;;22.60;10.00;;;28.70;99.90;;;;;;4862848;29;20398;-48
2023/07/04 10:58:40;;;;;;;22.63;11.25;;;28.60;99.90;;;;;;4843237;29;20117;-48
2023/07/04 11:01:22;;;;;;;16.25;11.35;;;28.60;99.90;;;;;;4862721;29;20050;-47
2023/07/04 11:04:04;;;;;;;15.82;9.48;;;28.60;99.90;;;;;;4862823;29;20040;-48
2023/07/04 11:06:35;;;;;;;14.32;8.80;;;28.60;99.90;;;;;;4846314;29;20026;-47
2023/07/04 11:09:04;;;;;;;9.95;6.78;;;28.60;99.90;;;;;;4846278;29;20037;-47
2023/07/04 11:11:31;;;;;;;11.15;7.15;;;28.70;99.90;;;;;;4846028;29;20030;-48
2023/07/04 11:14:03;;;;;;;8.90;6.05;;;28.70;99.90;;;;;;4862757;29;20109;-48
2023/07/04 11:16:31;;;;;;;11.88;7.53;;;28.80;99.90;;;;;;4862745;29;20041;-48
2023/07/04 11:19:04;;;;;;;14.75;8.93;;;28.80;99.90;;;;;;4862618;29;20147;-48
2023/07/04 11:21:31;;;;;;;16.60;8.32;;;28.80;99.90;;;;;;4862446;29;20049;-48
2023/07/04 11:24:36;;;;;;;14.57;8.00;;;28.90;99.90;;;;;;4862686;29;20109;-48
2023/07/04 11:27:10;;;;;;;12.85;7.05;;;28.90;99.90;;;;;;4834391;29;20517;-47
2023/07/04 11:29:57;;;;;;;11.70;7.60;;;29.00;99.90;;;;;;4862400;29;20034;-48
2023/07/04 11:32:55;;;;;;;12.18;7.88;;;29.00;99.90;;;;;;4862422;29;20025;-48
2023/07/04 11:35:23;;;;;;;13.43;7.90;;;29.00;99.90;;;;;;4862157;29;20045;-48
2023/07/04 11:38:02;;;;;;;12.30;8.00;;;29.00;99.90;;;;;;4861303;29;20386;-48
2023/07/04 11:40:42;;;;;;;17.90;9.90;;;29.00;99.90;;;;;;4851382;29;20052;-48
2023/07/04 11:43:24;;;;;;;15.68;8.75;;;29.00;99.90;;;;;;4845542;29;20022;-48
2023/07/04 11:45:53;;;;;;;20.58;11.30;;;29.00;99.90;;;;;;4862454;29;20475;-48
2023/07/04 11:48:19;;;;;;;16.70;9.05;;;29.10;99.90;;;;;;4861889;29;20378;-48
2023/07/04 11:50:49;;;;;;;16.67;9.90;;;29.10;99.90;;;;;;4861998;29;20049;-49
2023/07/04 11:53:33;;;;;;;14.20;8.57;;;29.10;99.90;;;;;;4861886;29;20547;-48
2023/07/04 11:56:22;;;;;;;16.52;10.38;;;29.10;99.90;;;;;;4862042;29;20379;-49
2023/07/04 11:59:11;;;;;;;20.52;11.57;;;29.10;99.90;;;;;;4852054;29;20078;-48
2023/07/04 12:01:51;;;;;;;20.23;11.60;;;29.10;99.90;;;;;;4861448;29;20054;-48
2023/07/04 12:04:44;;;;;;;15.63;10.50;;;29.10;99.90;;;;;;4845097;29;20033;-49
2023/07/04 12:07:42;;;;;;;20.33;13.90;;;29.10;99.90;;;;;;4852551;29;20030;-48
2023/07/04 12:10:20;;;;;;;21.63;12.73;;;29.10;99.90;;;;;;4848919;29;20033;-48
2023/07/04 12:12:55;;;;;;;22.55;13.40;;;29.00;99.90;;;;;;4861597;29;20104;-47
2023/07/04 12:15:28;;;;;;;19.90;13.18;;;29.00;99.90;;;;;;4861799;29;20037;-47
2023/07/04 12:17:58;;;;;;;21.88;13.70;;;29.00;99.90;;;;;;4844904;29;20024;-46
2023/07/04 12:20:27;;;;;;;16.40;9.75;;;29.00;99.90;;;;;;4844865;29;20025;-47
2023/07/04 12:22:56;;;;;;;13.02;8.85;;;28.90;99.90;;;;;;4861360;29;20029;-49
2023/07/04 12:25:35;;;;;;;13.07;8.20;;;28.90;99.90;;;;;;4861550;29;20030;-47
2023/07/04 12:28:03;;;;;;;12.07;9.70;;;28.90;99.90;;;;;;4844637;29;20036;-47
2023/07/04 12:30:30;;;;;;;18.20;10.13;;;28.90;99.90;;;;;;4861341;29;20044;-47
2023/07/04 12:32:56;;;;;;;16.90;9.48;;;28.80;99.90;;;;;;4861274;29;20146;-47
2023/07/04 12:35:35;;;;;;;14.27;8.95;;;28.90;99.90;;;;;;4844842;29;20029;-47
2023/07/04 12:38:02;;;;;;;15.43;8.80;;;28.90;99.90;;;;;;4861362;29;20036;-47
2023/07/04 12:40:30;;;;;;;13.05;7.75;;;28.90;99.90;;;;;;4861326;29;20018;-46
2023/07/04 12:43:00;;;;;;;16.65;10.77;;;28.90;99.90;;;;;;4861157;29;20040;-47
2023/07/04 12:45:27;;;;;;;13.25;8.25;;;28.90;99.90;;;;;;4861262;29;20391;-47
2023/07/04 12:47:57;;;;;;;17.45;9.48;;;29.00;99.90;;;;;;4844678;29;20026;-47
2023/07/04 12:50:23;;;;;;;16.98;10.88;;;29.00;99.90;;;;;;4860742;29;20041;-47
2023/07/04 12:52:50;;;;;;;13.95;10.27;;;29.00;99.90;;;;;;4861089;29;20501;-48